sensor_id;sensor_type;location;lat;lon;timestamp;P1;durP1;ratioP1;P2;durP2;ratioP2
23995;SDS011;12207;50.076;8.848;2023-12-20T00:02:01;326.35;;;73.20;;
23995;SDS011;12207;50.076;8.848;2023-12-20T00:04:27;332.38;;;72.97;;
23995;SDS011;12207;50.076;8.848;2023-12-20T00:06:53;328.95;;;73.05;;
23995;SDS011;12207;50.076;8.848;2023-12-20T00:09:19;327.02;;;73.28;;
23995;SDS011;12207;50.076;8.848;2023-12-20T00:11:46;339.35;;;73.97;;
23995;SDS011;12207;50.076;8.848;2023-12-20T00:14:12;325.30;;;72.78;;
23995;SDS011;12207;50.076;8.848;2023-12-20T00:16:38;332.85;;;73.55;;
23995;SDS011;12207;50.076;8.848;2023-12-20T00:19:07;340.65;;;75.43;;
23995;SDS011;12207;50.076;8.848;2023-12-20T00:21:33;342.08;;;74.65;;
23995;SDS011;12207;50.076;8.848;2023-12-20T00:23:59;330.27;;;73.10;;
23995;SDS011;12207;50.076;8.848;2023-12-20T00:26:25;323.55;;;73.47;;
23995;SDS011;12207;50.076;8.848;2023-12-20T00:28:53;336.73;;;74.43;;
23995;SDS011;12207;50.076;8.848;2023-12-20T00:31:19;323.65;;;73.10;;
23995;SDS011;12207;50.076;8.848;2023-12-20T00:33:45;337.88;;;73.35;;
23995;SDS011;12207;50.076;8.848;2023-12-20T00:36:12;320.85;;;72.40;;
23995;SDS011;12207;50.076;8.848;2023-12-20T00:38:38;353.15;;;75.50;;
23995;SDS011;12207;50.076;8.848;2023-12-20T00:41:04;322.50;;;73.45;;
23995;SDS011;12207;50.076;8.848;2023-12-20T00:43:30;342.23;;;74.97;;
23995;SDS011;12207;50.076;8.848;2023-12-20T00:45:57;327.92;;;72.20;;
23995;SDS011;12207;50.076;8.848;2023-12-20T00:48:25;317.23;;;72.05;;
23995;SDS011;12207;50.076;8.848;2023-12-20T00:50:52;327.83;;;74.05;;
23995;SDS011;12207;50.076;8.848;2023-12-20T00:53:18;327.20;;;72.50;;
23995;SDS011;12207;50.076;8.848;2023-12-20T00:55:45;328.55;;;73.90;;
23995;SDS011;12207;50.076;8.848;2023-12-20T00:58:11;327.13;;;74.00;;
23995;SDS011;12207;50.076;8.848;2023-12-20T01:00:40;336.10;;;73.88;;
23995;SDS011;12207;50.076;8.848;2023-12-20T01:03:08;328.58;;;74.35;;
23995;SDS011;12207;50.076;8.848;2023-12-20T01:05:34;328.48;;;73.43;;
23995;SDS011;12207;50.076;8.848;2023-12-20T01:08:00;328.58;;;73.32;;
23995;SDS011;12207;50.076;8.848;2023-12-20T01:10:28;338.67;;;73.75;;
23995;SDS011;12207;50.076;8.848;2023-12-20T01:12:54;320.58;;;71.95;;
23995;SDS011;12207;50.076;8.848;2023-12-20T01:15:20;322.27;;;72.90;;
23995;SDS011;12207;50.076;8.848;2023-12-20T01:17:47;319.20;;;72.95;;
23995;SDS011;12207;50.076;8.848;2023-12-20T01:20:14;334.30;;;74.18;;
23995;SDS011;12207;50.076;8.848;2023-12-20T01:22:40;328.73;;;73.03;;
23995;SDS011;12207;50.076;8.848;2023-12-20T01:25:07;317.58;;;71.53;;
23995;SDS011;12207;50.076;8.848;2023-12-20T01:27:34;329.33;;;72.65;;
23995;SDS011;12207;50.076;8.848;2023-12-20T01:30:00;318.98;;;72.63;;
23995;SDS011;12207;50.076;8.848;2023-12-20T01:32:26;324.35;;;73.13;;
23995;SDS011;12207;50.076;8.848;2023-12-20T01:34:52;326.98;;;72.35;;
23995;SDS011;12207;50.076;8.848;2023-12-20T01:37:18;325.23;;;73.68;;
23995;SDS011;12207;50.076;8.848;2023-12-20T01:39:44;329.65;;;75.53;;
23995;SDS011;12207;50.076;8.848;2023-12-20T01:42:10;326.17;;;73.88;;
23995;SDS011;12207;50.076;8.848;2023-12-20T01:44:36;342.27;;;75.65;;
23995;SDS011;12207;50.076;8.848;2023-12-20T01:47:02;329.45;;;75.15;;
23995;SDS011;12207;50.076;8.848;2023-12-20T01:49:29;332.42;;;74.35;;
23995;SDS011;12207;50.076;8.848;2023-12-20T01:51:55;327.38;;;74.03;;
23995;SDS011;12207;50.076;8.848;2023-12-20T01:54:21;318.35;;;72.53;;
23995;SDS011;12207;50.076;8.848;2023-12-20T01:56:48;344.63;;;75.55;;
23995;SDS011;12207;50.076;8.848;2023-12-20T01:59:15;326.88;;;73.80;;
23995;SDS011;12207;50.076;8.848;2023-12-20T02:01:42;331.98;;;73.38;;
23995;SDS011;12207;50.076;8.848;2023-12-20T02:04:08;320.58;;;72.60;;
23995;SDS011;12207;50.076;8.848;2023-12-20T02:06:35;319.13;;;71.88;;
23995;SDS011;12207;50.076;8.848;2023-12-20T02:09:03;316.15;;;72.43;;
23995;SDS011;12207;50.076;8.848;2023-12-20T02:11:29;323.23;;;72.82;;
23995;SDS011;12207;50.076;8.848;2023-12-20T02:13:56;349.92;;;75.70;;
23995;SDS011;12207;50.076;8.848;2023-12-20T02:16:22;338.42;;;74.68;;
23995;SDS011;12207;50.076;8.848;2023-12-20T02:18:48;338.25;;;74.38;;
23995;SDS011;12207;50.076;8.848;2023-12-20T02:21:14;329.50;;;73.47;;
23995;SDS011;12207;50.076;8.848;2023-12-20T02:23:40;320.17;;;72.80;;
23995;SDS011;12207;50.076;8.848;2023-12-20T02:26:06;314.85;;;71.90;;
23995;SDS011;12207;50.076;8.848;2023-12-20T02:28:33;327.02;;;72.80;;
23995;SDS011;12207;50.076;8.848;2023-12-20T02:30:59;328.52;;;73.60;;
23995;SDS011;12207;50.076;8.848;2023-12-20T02:33:25;319.98;;;72.22;;
23995;SDS011;12207;50.076;8.848;2023-12-20T02:35:52;322.38;;;72.43;;
23995;SDS011;12207;50.076;8.848;2023-12-20T02:38:18;316.90;;;71.85;;
23995;SDS011;12207;50.076;8.848;2023-12-20T02:40:44;314.52;;;71.63;;
23995;SDS011;12207;50.076;8.848;2023-12-20T02:43:10;323.75;;;73.22;;
23995;SDS011;12207;50.076;8.848;2023-12-20T02:45:36;327.23;;;72.57;;
23995;SDS011;12207;50.076;8.848;2023-12-20T02:48:02;324.20;;;73.10;;
23995;SDS011;12207;50.076;8.848;2023-12-20T02:50:32;339.45;;;74.13;;
23995;SDS011;12207;50.076;8.848;2023-12-20T02:52:58;332.27;;;73.75;;
23995;SDS011;12207;50.076;8.848;2023-12-20T02:55:24;320.83;;;72.63;;
23995;SDS011;12207;50.076;8.848;2023-12-20T02:57:50;328.58;;;73.53;;
23995;SDS011;12207;50.076;8.848;2023-12-20T03:00:16;349.98;;;76.35;;
23995;SDS011;12207;50.076;8.848;2023-12-20T03:02:42;335.80;;;74.97;;
23995;SDS011;12207;50.076;8.848;2023-12-20T03:05:08;318.70;;;72.78;;
23995;SDS011;12207;50.076;8.848;2023-12-20T03:07:36;334.38;;;73.68;;
23995;SDS011;12207;50.076;8.848;2023-12-20T03:10:03;327.65;;;73.82;;
23995;SDS011;12207;50.076;8.848;2023-12-20T03:12:31;321.52;;;73.60;;
23995;SDS011;12207;50.076;8.848;2023-12-20T03:14:57;332.90;;;74.88;;
23995;SDS011;12207;50.076;8.848;2023-12-20T03:17:23;322.52;;;72.68;;
23995;SDS011;12207;50.076;8.848;2023-12-20T03:19:49;316.20;;;71.65;;
23995;SDS011;12207;50.076;8.848;2023-12-20T03:22:15;326.63;;;73.35;;
23995;SDS011;12207;50.076;8.848;2023-12-20T03:24:41;341.58;;;75.38;;
23995;SDS011;12207;50.076;8.848;2023-12-20T03:27:07;325.20;;;72.68;;
23995;SDS011;12207;50.076;8.848;2023-12-20T03:29:34;324.23;;;73.60;;
23995;SDS011;12207;50.076;8.848;2023-12-20T03:32:00;326.00;;;73.45;;
23995;SDS011;12207;50.076;8.848;2023-12-20T03:34:26;321.00;;;73.13;;
23995;SDS011;12207;50.076;8.848;2023-12-20T03:36:54;306.70;;;70.60;;
23995;SDS011;12207;50.076;8.848;2023-12-20T03:39:20;330.27;;;73.03;;
23995;SDS011;12207;50.076;8.848;2023-12-20T03:41:46;337.27;;;73.65;;
23995;SDS011;12207;50.076;8.848;2023-12-20T03:44:12;316.80;;;72.63;;
23995;SDS011;12207;50.076;8.848;2023-12-20T03:46:38;333.38;;;74.20;;
23995;SDS011;12207;50.076;8.848;2023-12-20T03:49:04;318.63;;;72.47;;
23995;SDS011;12207;50.076;8.848;2023-12-20T03:51:30;321.05;;;72.60;;
23995;SDS011;12207;50.076;8.848;2023-12-20T03:53:56;337.42;;;75.10;;
23995;SDS011;12207;50.076;8.848;2023-12-20T03:56:22;322.45;;;73.95;;
23995;SDS011;12207;50.076;8.848;2023-12-20T03:58:49;317.02;;;72.05;;
23995;SDS011;12207;50.076;8.848;2023-12-20T04:01:15;333.05;;;73.45;;
23995;SDS011;12207;50.076;8.848;2023-12-20T04:03:41;328.98;;;74.00;;
23995;SDS011;12207;50.076;8.848;2023-12-20T04:06:07;335.83;;;74.20;;
23995;SDS011;12207;50.076;8.848;2023-12-20T04:08:33;330.85;;;73.63;;
23995;SDS011;12207;50.076;8.848;2023-12-20T04:10:59;323.50;;;73.25;;
23995;SDS011;12207;50.076;8.848;2023-12-20T04:13:25;333.67;;;75.38;;
23995;SDS011;12207;50.076;8.848;2023-12-20T04:15:52;317.50;;;74.03;;
23995;SDS011;12207;50.076;8.848;2023-12-20T04:18:18;331.80;;;74.07;;
23995;SDS011;12207;50.076;8.848;2023-12-20T04:20:44;334.98;;;74.50;;
23995;SDS011;12207;50.076;8.848;2023-12-20T04:23:10;323.08;;;72.93;;
23995;SDS011;12207;50.076;8.848;2023-12-20T04:25:36;343.67;;;75.95;;
23995;SDS011;12207;50.076;8.848;2023-12-20T04:28:02;320.80;;;73.57;;
23995;SDS011;12207;50.076;8.848;2023-12-20T04:30:29;335.67;;;73.72;;
23995;SDS011;12207;50.076;8.848;2023-12-20T04:32:55;339.08;;;74.40;;
23995;SDS011;12207;50.076;8.848;2023-12-20T04:35:22;336.40;;;75.72;;
23995;SDS011;12207;50.076;8.848;2023-12-20T04:37:48;333.38;;;74.13;;
23995;SDS011;12207;50.076;8.848;2023-12-20T04:40:14;334.00;;;74.55;;
23995;SDS011;12207;50.076;8.848;2023-12-20T04:42:40;330.63;;;74.28;;
23995;SDS011;12207;50.076;8.848;2023-12-20T04:45:07;329.58;;;74.43;;
23995;SDS011;12207;50.076;8.848;2023-12-20T04:47:33;335.05;;;74.50;;
23995;SDS011;12207;50.076;8.848;2023-12-20T04:49:59;330.67;;;74.05;;
23995;SDS011;12207;50.076;8.848;2023-12-20T04:52:25;323.10;;;72.25;;
23995;SDS011;12207;50.076;8.848;2023-12-20T04:54:51;321.45;;;73.05;;
23995;SDS011;12207;50.076;8.848;2023-12-20T04:57:18;335.00;;;74.43;;
23995;SDS011;12207;50.076;8.848;2023-12-20T04:59:44;326.35;;;74.30;;
23995;SDS011;12207;50.076;8.848;2023-12-20T05:02:10;319.70;;;72.72;;
23995;SDS011;12207;50.076;8.848;2023-12-20T05:04:36;334.67;;;74.70;;
23995;SDS011;12207;50.076;8.848;2023-12-20T05:07:02;316.30;;;72.97;;
23995;SDS011;12207;50.076;8.848;2023-12-20T05:09:30;314.55;;;72.07;;
23995;SDS011;12207;50.076;8.848;2023-12-20T05:11:56;333.92;;;74.00;;
23995;SDS011;12207;50.076;8.848;2023-12-20T05:14:22;320.77;;;73.05;;
23995;SDS011;12207;50.076;8.848;2023-12-20T05:16:52;326.17;;;73.45;;
23995;SDS011;12207;50.076;8.848;2023-12-20T05:19:18;318.73;;;72.70;;
23995;SDS011;12207;50.076;8.848;2023-12-20T05:21:44;328.20;;;74.78;;
23995;SDS011;12207;50.076;8.848;2023-12-20T05:24:14;317.25;;;73.22;;
23995;SDS011;12207;50.076;8.848;2023-12-20T05:26:40;317.17;;;72.60;;
23995;SDS011;12207;50.076;8.848;2023-12-20T05:29:06;314.52;;;72.68;;
23995;SDS011;12207;50.076;8.848;2023-12-20T05:31:33;323.83;;;73.82;;
23995;SDS011;12207;50.076;8.848;2023-12-20T05:33:59;324.52;;;73.75;;
23995;SDS011;12207;50.076;8.848;2023-12-20T05:36:25;321.13;;;72.72;;
23995;SDS011;12207;50.076;8.848;2023-12-20T05:38:52;315.95;;;73.35;;
23995;SDS011;12207;50.076;8.848;2023-12-20T05:41:18;329.98;;;74.13;;
23995;SDS011;12207;50.076;8.848;2023-12-20T05:43:44;327.02;;;74.45;;
23995;SDS011;12207;50.076;8.848;2023-12-20T05:46:10;328.05;;;73.85;;
23995;SDS011;12207;50.076;8.848;2023-12-20T05:48:37;322.02;;;73.75;;
23995;SDS011;12207;50.076;8.848;2023-12-20T05:51:03;344.83;;;75.93;;
23995;SDS011;12207;50.076;8.848;2023-12-20T05:53:29;314.55;;;72.75;;
23995;SDS011;12207;50.076;8.848;2023-12-20T05:55:55;325.52;;;74.53;;
23995;SDS011;12207;50.076;8.848;2023-12-20T05:58:21;309.95;;;72.20;;
23995;SDS011;12207;50.076;8.848;2023-12-20T06:00:48;318.65;;;73.00;;
23995;SDS011;12207;50.076;8.848;2023-12-20T06:03:14;334.40;;;74.72;;
23995;SDS011;12207;50.076;8.848;2023-12-20T06:05:40;321.48;;;74.00;;
23995;SDS011;12207;50.076;8.848;2023-12-20T06:08:07;328.40;;;76.13;;
23995;SDS011;12207;50.076;8.848;2023-12-20T06:10:33;324.60;;;74.65;;
23995;SDS011;12207;50.076;8.848;2023-12-20T06:12:59;314.85;;;73.10;;
23995;SDS011;12207;50.076;8.848;2023-12-20T06:15:25;316.40;;;72.47;;
23995;SDS011;12207;50.076;8.848;2023-12-20T06:17:51;332.45;;;75.10;;
23995;SDS011;12207;50.076;8.848;2023-12-20T06:20:17;327.75;;;74.25;;
23995;SDS011;12207;50.076;8.848;2023-12-20T06:22:44;328.63;;;74.63;;
23995;SDS011;12207;50.076;8.848;2023-12-20T06:25:10;322.67;;;73.15;;
23995;SDS011;12207;50.076;8.848;2023-12-20T06:27:36;341.00;;;74.53;;
23995;SDS011;12207;50.076;8.848;2023-12-20T06:30:02;315.30;;;72.60;;
23995;SDS011;12207;50.076;8.848;2023-12-20T06:32:28;329.67;;;74.00;;
23995;SDS011;12207;50.076;8.848;2023-12-20T06:34:55;325.27;;;73.30;;
23995;SDS011;12207;50.076;8.848;2023-12-20T06:37:21;321.55;;;73.47;;
23995;SDS011;12207;50.076;8.848;2023-12-20T06:39:47;312.67;;;71.60;;
23995;SDS011;12207;50.076;8.848;2023-12-20T06:42:13;318.65;;;72.22;;
23995;SDS011;12207;50.076;8.848;2023-12-20T06:44:39;317.33;;;71.63;;
23995;SDS011;12207;50.076;8.848;2023-12-20T06:47:05;299.77;;;69.90;;
23995;SDS011;12207;50.076;8.848;2023-12-20T06:49:31;314.70;;;71.65;;
23995;SDS011;12207;50.076;8.848;2023-12-20T06:51:58;302.95;;;71.13;;
23995;SDS011;12207;50.076;8.848;2023-12-20T06:54:24;316.55;;;72.88;;
23995;SDS011;12207;50.076;8.848;2023-12-20T06:56:50;319.83;;;72.18;;
23995;SDS011;12207;50.076;8.848;2023-12-20T06:59:16;336.80;;;73.70;;
23995;SDS011;12207;50.076;8.848;2023-12-20T07:01:42;316.00;;;71.53;;
23995;SDS011;12207;50.076;8.848;2023-12-20T07:04:14;307.13;;;74.78;;
23995;SDS011;12207;50.076;8.848;2023-12-20T07:06:41;316.88;;;78.32;;
23995;SDS011;12207;50.076;8.848;2023-12-20T07:09:07;310.17;;;72.57;;
23995;SDS011;12207;50.076;8.848;2023-12-20T07:11:33;341.77;;;75.18;;
23995;SDS011;12207;50.076;8.848;2023-12-20T07:13:59;323.35;;;73.38;;
23995;SDS011;12207;50.076;8.848;2023-12-20T07:16:26;319.88;;;75.40;;
23995;SDS011;12207;50.076;8.848;2023-12-20T07:18:52;301.98;;;71.95;;
23995;SDS011;12207;50.076;8.848;2023-12-20T07:21:18;314.85;;;73.68;;
23995;SDS011;12207;50.076;8.848;2023-12-20T07:23:44;310.10;;;72.28;;
23995;SDS011;12207;50.076;8.848;2023-12-20T07:26:11;321.75;;;74.38;;
23995;SDS011;12207;50.076;8.848;2023-12-20T07:28:37;326.70;;;74.07;;
23995;SDS011;12207;50.076;8.848;2023-12-20T07:31:03;310.80;;;72.13;;
23995;SDS011;12207;50.076;8.848;2023-12-20T07:33:29;318.65;;;72.00;;
23995;SDS011;12207;50.076;8.848;2023-12-20T07:35:55;331.60;;;73.97;;
23995;SDS011;12207;50.076;8.848;2023-12-20T07:38:24;326.00;;;73.60;;
23995;SDS011;12207;50.076;8.848;2023-12-20T07:40:50;322.27;;;73.22;;
23995;SDS011;12207;50.076;8.848;2023-12-20T07:43:17;335.95;;;74.75;;
23995;SDS011;12207;50.076;8.848;2023-12-20T07:45:43;334.67;;;75.07;;
23995;SDS011;12207;50.076;8.848;2023-12-20T07:48:09;325.20;;;73.85;;
23995;SDS011;12207;50.076;8.848;2023-12-20T07:50:35;331.67;;;74.07;;
23995;SDS011;12207;50.076;8.848;2023-12-20T07:53:01;335.40;;;74.30;;
23995;SDS011;12207;50.076;8.848;2023-12-20T07:55:28;330.80;;;74.00;;
23995;SDS011;12207;50.076;8.848;2023-12-20T07:57:56;325.55;;;73.85;;
23995;SDS011;12207;50.076;8.848;2023-12-20T08:00:22;318.85;;;72.53;;
23995;SDS011;12207;50.076;8.848;2023-12-20T08:02:48;317.23;;;72.10;;
23995;SDS011;12207;50.076;8.848;2023-12-20T08:05:14;315.10;;;71.88;;
23995;SDS011;12207;50.076;8.848;2023-12-20T08:07:40;315.40;;;71.40;;
23995;SDS011;12207;50.076;8.848;2023-12-20T08:10:07;307.08;;;71.03;;
23995;SDS011;12207;50.076;8.848;2023-12-20T08:12:33;316.48;;;71.97;;
23995;SDS011;12207;50.076;8.848;2023-12-20T08:14:59;334.98;;;74.40;;
23995;SDS011;12207;50.076;8.848;2023-12-20T08:17:26;335.08;;;73.78;;
23995;SDS011;12207;50.076;8.848;2023-12-20T08:19:52;328.80;;;73.82;;
23995;SDS011;12207;50.076;8.848;2023-12-20T08:22:18;348.40;;;76.35;;
23995;SDS011;12207;50.076;8.848;2023-12-20T08:24:44;350.02;;;76.82;;
23995;SDS011;12207;50.076;8.848;2023-12-20T08:27:10;353.63;;;76.95;;
23995;SDS011;12207;50.076;8.848;2023-12-20T08:29:36;353.27;;;77.28;;
23995;SDS011;12207;50.076;8.848;2023-12-20T08:32:03;323.30;;;73.75;;
23995;SDS011;12207;50.076;8.848;2023-12-20T08:34:29;317.80;;;72.00;;
23995;SDS011;12207;50.076;8.848;2023-12-20T08:36:55;346.75;;;78.53;;
23995;SDS011;12207;50.076;8.848;2023-12-20T08:39:21;336.33;;;75.03;;
23995;SDS011;12207;50.076;8.848;2023-12-20T08:41:48;333.70;;;74.25;;
23995;SDS011;12207;50.076;8.848;2023-12-20T08:44:16;339.90;;;74.38;;
23995;SDS011;12207;50.076;8.848;2023-12-20T08:46:42;359.08;;;77.38;;
23995;SDS011;12207;50.076;8.848;2023-12-20T08:49:09;316.38;;;71.72;;
23995;SDS011;12207;50.076;8.848;2023-12-20T08:51:35;327.85;;;73.85;;
23995;SDS011;12207;50.076;8.848;2023-12-20T08:54:01;321.27;;;71.47;;
23995;SDS011;12207;50.076;8.848;2023-12-20T08:56:28;339.60;;;73.68;;
23995;SDS011;12207;50.076;8.848;2023-12-20T08:58:54;339.48;;;74.65;;
23995;SDS011;12207;50.076;8.848;2023-12-20T09:01:20;326.38;;;73.53;;
23995;SDS011;12207;50.076;8.848;2023-12-20T09:03:46;334.90;;;74.57;;
23995;SDS011;12207;50.076;8.848;2023-12-20T09:06:12;332.33;;;74.70;;
23995;SDS011;12207;50.076;8.848;2023-12-20T09:08:38;344.42;;;75.95;;
23995;SDS011;12207;50.076;8.848;2023-12-20T09:11:05;316.08;;;72.82;;
23995;SDS011;12207;50.076;8.848;2023-12-20T09:13:31;342.73;;;76.07;;
23995;SDS011;12207;50.076;8.848;2023-12-20T09:15:58;344.88;;;75.00;;
23995;SDS011;12207;50.076;8.848;2023-12-20T09:18:24;325.08;;;73.13;;
23995;SDS011;12207;50.076;8.848;2023-12-20T09:20:50;339.60;;;75.35;;
23995;SDS011;12207;50.076;8.848;2023-12-20T09:23:16;335.55;;;74.82;;
23995;SDS011;12207;50.076;8.848;2023-12-20T09:25:43;334.83;;;74.65;;
23995;SDS011;12207;50.076;8.848;2023-12-20T09:28:09;328.73;;;73.80;;
23995;SDS011;12207;50.076;8.848;2023-12-20T09:30:35;366.00;;;77.47;;
23995;SDS011;12207;50.076;8.848;2023-12-20T09:33:04;338.02;;;75.50;;
23995;SDS011;12207;50.076;8.848;2023-12-20T09:35:32;336.73;;;73.28;;
23995;SDS011;12207;50.076;8.848;2023-12-20T09:37:58;332.95;;;73.90;;
23995;SDS011;12207;50.076;8.848;2023-12-20T09:40:25;315.85;;;71.35;;
23995;SDS011;12207;50.076;8.848;2023-12-20T09:43:25;342.50;;;74.82;;
23995;SDS011;12207;50.076;8.848;2023-12-20T09:45:46;343.03;;;74.63;;
23995;SDS011;12207;50.076;8.848;2023-12-20T09:48:13;339.63;;;74.25;;
23995;SDS011;12207;50.076;8.848;2023-12-20T09:50:42;341.55;;;75.90;;
23995;SDS011;12207;50.076;8.848;2023-12-20T09:53:09;354.17;;;76.03;;
23995;SDS011;12207;50.076;8.848;2023-12-20T09:55:39;341.67;;;75.55;;
23995;SDS011;12207;50.076;8.848;2023-12-20T09:58:07;337.65;;;74.57;;
23995;SDS011;12207;50.076;8.848;2023-12-20T10:00:34;335.35;;;74.55;;
23995;SDS011;12207;50.076;8.848;2023-12-20T10:03:00;342.02;;;76.20;;
23995;SDS011;12207;50.076;8.848;2023-12-20T10:07:53;350.27;;;77.50;;
23995;SDS011;12207;50.076;8.848;2023-12-20T10:10:20;342.27;;;75.85;;
23995;SDS011;12207;50.076;8.848;2023-12-20T10:13:00;336.98;;;75.40;;
23995;SDS011;12207;50.076;8.848;2023-12-20T10:15:32;334.65;;;74.78;;
23995;SDS011;12207;50.076;8.848;2023-12-20T10:17:58;346.15;;;77.00;;
23995;SDS011;12207;50.076;8.848;2023-12-20T10:20:25;347.17;;;75.82;;
23995;SDS011;12207;50.076;8.848;2023-12-20T10:22:53;339.25;;;75.25;;
23995;SDS011;12207;50.076;8.848;2023-12-20T10:25:24;359.42;;;77.38;;
23995;SDS011;12207;50.076;8.848;2023-12-20T10:27:50;342.25;;;75.95;;
23995;SDS011;12207;50.076;8.848;2023-12-20T10:30:34;343.23;;;76.00;;
23995;SDS011;12207;50.076;8.848;2023-12-20T10:33:01;341.10;;;75.90;;
23995;SDS011;12207;50.076;8.848;2023-12-20T10:35:27;333.60;;;74.22;;
23995;SDS011;12207;50.076;8.848;2023-12-20T10:37:55;345.05;;;75.97;;
23995;SDS011;12207;50.076;8.848;2023-12-20T10:40:22;346.58;;;75.40;;
23995;SDS011;12207;50.076;8.848;2023-12-20T10:42:50;341.40;;;75.55;;
23995;SDS011;12207;50.076;8.848;2023-12-20T10:45:17;346.90;;;76.07;;
23995;SDS011;12207;50.076;8.848;2023-12-20T10:47:45;346.02;;;76.35;;
23995;SDS011;12207;50.076;8.848;2023-12-20T10:50:12;346.60;;;75.45;;
23995;SDS011;12207;50.076;8.848;2023-12-20T10:52:38;349.13;;;75.85;;
23995;SDS011;12207;50.076;8.848;2023-12-20T10:55:07;346.88;;;77.00;;
23995;SDS011;12207;50.076;8.848;2023-12-20T10:57:34;340.92;;;75.18;;
23995;SDS011;12207;50.076;8.848;2023-12-20T11:00:01;340.20;;;75.80;;
23995;SDS011;12207;50.076;8.848;2023-12-20T11:02:29;346.02;;;75.80;;
23995;SDS011;12207;50.076;8.848;2023-12-20T11:05:02;341.77;;;75.15;;
23995;SDS011;12207;50.076;8.848;2023-12-20T11:07:41;352.63;;;76.70;;
23995;SDS011;12207;50.076;8.848;2023-12-20T11:10:33;346.40;;;76.25;;
23995;SDS011;12207;50.076;8.848;2023-12-20T11:13:10;343.40;;;75.97;;
23995;SDS011;12207;50.076;8.848;2023-12-20T11:15:42;344.35;;;76.10;;
23995;SDS011;12207;50.076;8.848;2023-12-20T11:18:09;351.23;;;77.22;;
23995;SDS011;12207;50.076;8.848;2023-12-20T11:20:35;354.50;;;77.53;;
23995;SDS011;12207;50.076;8.848;2023-12-20T11:23:02;382.35;;;80.75;;
23995;SDS011;12207;50.076;8.848;2023-12-20T11:25:30;339.23;;;76.53;;
23995;SDS011;12207;50.076;8.848;2023-12-20T11:28:12;359.50;;;78.03;;
23995;SDS011;12207;50.076;8.848;2023-12-20T11:30:52;363.00;;;79.70;;
23995;SDS011;12207;50.076;8.848;2023-12-20T11:33:24;362.05;;;78.35;;
23995;SDS011;12207;50.076;8.848;2023-12-20T11:35:51;363.75;;;79.15;;
23995;SDS011;12207;50.076;8.848;2023-12-20T11:38:20;353.20;;;77.97;;
23995;SDS011;12207;50.076;8.848;2023-12-20T11:40:48;359.30;;;77.57;;
23995;SDS011;12207;50.076;8.848;2023-12-20T11:43:30;363.00;;;79.40;;
23995;SDS011;12207;50.076;8.848;2023-12-20T11:46:06;351.70;;;78.75;;
23995;SDS011;12207;50.076;8.848;2023-12-20T11:48:38;367.75;;;80.57;;
23995;SDS011;12207;50.076;8.848;2023-12-20T11:51:11;367.65;;;79.55;;
23995;SDS011;12207;50.076;8.848;2023-12-20T11:53:39;365.88;;;81.07;;
23995;SDS011;12207;50.076;8.848;2023-12-20T11:56:07;370.00;;;82.40;;
23995;SDS011;12207;50.076;8.848;2023-12-20T11:58:34;355.00;;;77.47;;
23995;SDS011;12207;50.076;8.848;2023-12-20T12:01:00;361.77;;;79.20;;
23995;SDS011;12207;50.076;8.848;2023-12-20T12:03:27;359.55;;;78.32;;
23995;SDS011;12207;50.076;8.848;2023-12-20T12:05:53;352.40;;;77.97;;
23995;SDS011;12207;50.076;8.848;2023-12-20T12:08:19;361.20;;;78.53;;
23995;SDS011;12207;50.076;8.848;2023-12-20T12:10:46;347.92;;;76.70;;
23995;SDS011;12207;50.076;8.848;2023-12-20T12:13:12;350.67;;;78.20;;
23995;SDS011;12207;50.076;8.848;2023-12-20T12:15:39;365.02;;;78.35;;
23995;SDS011;12207;50.076;8.848;2023-12-20T12:18:07;338.75;;;76.32;;
23995;SDS011;12207;50.076;8.848;2023-12-20T12:20:33;336.40;;;75.30;;
23995;SDS011;12207;50.076;8.848;2023-12-20T12:23:03;350.85;;;77.43;;
23995;SDS011;12207;50.076;8.848;2023-12-20T12:25:31;344.10;;;77.45;;
23995;SDS011;12207;50.076;8.848;2023-12-20T12:28:00;334.90;;;76.18;;
23995;SDS011;12207;50.076;8.848;2023-12-20T12:30:26;360.83;;;78.43;;
23995;SDS011;12207;50.076;8.848;2023-12-20T12:32:53;355.50;;;77.55;;
23995;SDS011;12207;50.076;8.848;2023-12-20T12:35:21;351.08;;;75.80;;
23995;SDS011;12207;50.076;8.848;2023-12-20T12:37:47;351.60;;;77.43;;
23995;SDS011;12207;50.076;8.848;2023-12-20T12:40:14;367.13;;;79.18;;
23995;SDS011;12207;50.076;8.848;2023-12-20T12:42:42;360.05;;;77.38;;
23995;SDS011;12207;50.076;8.848;2023-12-20T12:45:09;359.70;;;78.78;;
23995;SDS011;12207;50.076;8.848;2023-12-20T12:47:39;357.52;;;78.43;;
23995;SDS011;12207;50.076;8.848;2023-12-20T12:50:06;351.67;;;78.40;;
23995;SDS011;12207;50.076;8.848;2023-12-20T12:52:33;352.70;;;77.22;;
23995;SDS011;12207;50.076;8.848;2023-12-20T12:55:00;358.90;;;79.32;;
23995;SDS011;12207;50.076;8.848;2023-12-20T12:57:26;354.20;;;78.30;;
23995;SDS011;12207;50.076;8.848;2023-12-20T12:59:58;378.13;;;80.53;;
23995;SDS011;12207;50.076;8.848;2023-12-20T13:02:24;359.85;;;77.28;;
23995;SDS011;12207;50.076;8.848;2023-12-20T13:04:50;347.65;;;76.85;;
23995;SDS011;12207;50.076;8.848;2023-12-20T13:07:17;352.88;;;78.63;;
23995;SDS011;12207;50.076;8.848;2023-12-20T13:09:43;353.23;;;77.43;;
23995;SDS011;12207;50.076;8.848;2023-12-20T13:12:12;356.45;;;78.22;;
23995;SDS011;12207;50.076;8.848;2023-12-20T13:14:38;359.40;;;78.80;;
23995;SDS011;12207;50.076;8.848;2023-12-20T13:17:10;349.05;;;78.40;;
23995;SDS011;12207;50.076;8.848;2023-12-20T13:19:36;355.20;;;78.43;;
23995;SDS011;12207;50.076;8.848;2023-12-20T13:22:02;363.13;;;78.50;;
23995;SDS011;12207;50.076;8.848;2023-12-20T13:24:28;356.40;;;77.78;;
23995;SDS011;12207;50.076;8.848;2023-12-20T13:26:55;345.95;;;76.40;;
23995;SDS011;12207;50.076;8.848;2023-12-20T13:29:21;361.65;;;79.15;;
23995;SDS011;12207;50.076;8.848;2023-12-20T13:31:47;366.92;;;79.72;;
23995;SDS011;12207;50.076;8.848;2023-12-20T13:34:14;357.83;;;78.78;;
23995;SDS011;12207;50.076;8.848;2023-12-20T13:36:42;366.65;;;80.97;;
23995;SDS011;12207;50.076;8.848;2023-12-20T13:39:11;357.92;;;77.80;;
23995;SDS011;12207;50.076;8.848;2023-12-20T13:41:37;347.33;;;76.72;;
23995;SDS011;12207;50.076;8.848;2023-12-20T13:44:04;362.05;;;78.35;;
23995;SDS011;12207;50.076;8.848;2023-12-20T13:46:30;347.83;;;76.97;;
23995;SDS011;12207;50.076;8.848;2023-12-20T13:48:56;357.67;;;77.72;;
23995;SDS011;12207;50.076;8.848;2023-12-20T13:51:23;354.88;;;77.40;;
23995;SDS011;12207;50.076;8.848;2023-12-20T13:53:49;348.35;;;78.03;;
23995;SDS011;12207;50.076;8.848;2023-12-20T13:56:15;348.45;;;77.07;;
23995;SDS011;12207;50.076;8.848;2023-12-20T13:58:41;338.15;;;75.68;;
23995;SDS011;12207;50.076;8.848;2023-12-20T14:01:08;342.77;;;76.47;;
23995;SDS011;12207;50.076;8.848;2023-12-20T14:03:35;346.45;;;76.70;;
23995;SDS011;12207;50.076;8.848;2023-12-20T14:06:01;369.05;;;79.55;;
23995;SDS011;12207;50.076;8.848;2023-12-20T14:08:28;343.48;;;77.07;;
23995;SDS011;12207;50.076;8.848;2023-12-20T14:10:54;332.00;;;76.30;;